Overview Statistics Trail Chart Weather Telemetry Raw packets
 

This is the latest recevied weather packets stored in our database for station/object IN3MWE-10. If no packets are shown the sender has not sent any weather packets the latest 10 day(s).

<< 26 27 28 29 30 31 32 >>
Time Temp. Humidity Pressure Rain* Wind** Luminosity Snow
1788046524 21.67° C 75% 979.8 hPa - - - -
1788045624 22.22° C 73% 979.6 hPa - - - -
1788044735 22.22° C 73% 979.5 hPa - - - -
1788043824 22.78° C 71% 979.4 hPa - - - -
1788042924 22.78° C 71% 979.2 hPa - - - -
1788042024 23.33° C 71% 979.2 hPa - - - -
1788041124 23.33° C 71% 979.1 hPa - - - -
1788040223 23.89° C 69% 978.9 hPa - - - -
1788039323 23.89° C 67% 978.8 hPa - - - -
1788038423 23.89° C 67% 978.6 hPa - - - -
1788037523 23.89° C 69% 978.6 hPa - - - -
1788036623 23.89° C 70% 978.4 hPa - - - -
1788035723 23.89° C 72% 978.4 hPa - - - -
1788034823 23.89° C 75% 978.3 hPa - - - -
1788033923 24.44° C 71% 978.2 hPa - - - -
1788033022 23.89° C 74% 978.2 hPa - - - -
1788032122 24.44° C 74% 978 hPa - - - -
1788031222 24.44° C 73% 977.7 hPa - - - -
1788030322 25° C 72% 977.6 hPa - - - -
1788029422 25° C 71% 977.3 hPa - - - -
1788028522 25° C 73% 977.2 hPa - - - -
1788027621 25.56° C 72% 976.9 hPa - - - -
1788026722 25.56° C 71% 976.6 hPa - - - -
1788025821 26.11° C 71% 976.5 hPa - - - -
1788024921 26.67° C 68% 976.2 hPa - - - -

* Rain since midnight (hover to see other rain measurements)
** Current wind speed in m/s (hover to see current wind gust speed)